sensor_id;sensor_type;location;lat;lon;timestamp;temperature;humidity
5617;DHT22;2830;50.656;7.568;2023-12-28T00:02:15;7.80;99.90
5617;DHT22;2830;50.656;7.568;2023-12-28T00:04:42;7.70;99.90
5617;DHT22;2830;50.656;7.568;2023-12-28T00:07:09;7.70;99.90
5617;DHT22;2830;50.656;7.568;2023-12-28T00:09:36;7.70;99.90
5617;DHT22;2830;50.656;7.568;2023-12-28T00:12:03;7.70;99.90
5617;DHT22;2830;50.656;7.568;2023-12-28T00:14:31;7.70;99.90
5617;DHT22;2830;50.656;7.568;2023-12-28T00:16:58;7.60;99.90
5617;DHT22;2830;50.656;7.568;2023-12-28T00:19:25;7.70;99.90
5617;DHT22;2830;50.656;7.568;2023-12-28T00:21:52;7.60;99.90
5617;DHT22;2830;50.656;7.568;2023-12-28T00:24:20;7.60;99.90
5617;DHT22;2830;50.656;7.568;2023-12-28T00:26:47;7.60;99.90
5617;DHT22;2830;50.656;7.568;2023-12-28T00:29:14;7.70;99.90
5617;DHT22;2830;50.656;7.568;2023-12-28T00:31:41;7.70;99.90
5617;DHT22;2830;50.656;7.568;2023-12-28T00:34:08;7.70;99.90
5617;DHT22;2830;50.656;7.568;2023-12-28T00:36:35;7.70;99.90
5617;DHT22;2830;50.656;7.568;2023-12-28T00:39:02;7.70;99.90
5617;DHT22;2830;50.656;7.568;2023-12-28T00:41:30;7.70;99.90
5617;DHT22;2830;50.656;7.568;2023-12-28T00:43:57;7.70;99.90
5617;DHT22;2830;50.656;7.568;2023-12-28T00:46:23;7.70;99.90
5617;DHT22;2830;50.656;7.568;2023-12-28T00:48:50;7.70;99.90
5617;DHT22;2830;50.656;7.568;2023-12-28T00:51:17;7.80;99.90
5617;DHT22;2830;50.656;7.568;2023-12-28T00:53:44;7.70;99.90
5617;DHT22;2830;50.656;7.568;2023-12-28T00:56:11;7.70;99.90
5617;DHT22;2830;50.656;7.568;2023-12-28T00:58:41;7.70;99.90
5617;DHT22;2830;50.656;7.568;2023-12-28T01:01:10;7.70;99.90
5617;DHT22;2830;50.656;7.568;2023-12-28T01:03:37;7.60;99.90
5617;DHT22;2830;50.656;7.568;2023-12-28T01:06:05;7.60;99.90
5617;DHT22;2830;50.656;7.568;2023-12-28T01:08:32;7.50;99.90
5617;DHT22;2830;50.656;7.568;2023-12-28T01:11:02;7.50;99.90
5617;DHT22;2830;50.656;7.568;2023-12-28T01:13:29;7.30;99.90
5617;DHT22;2830;50.656;7.568;2023-12-28T01:15:57;7.30;99.90
5617;DHT22;2830;50.656;7.568;2023-12-28T01:18:24;7.20;99.90
5617;DHT22;2830;50.656;7.568;2023-12-28T01:20:52;7.10;99.90
5617;DHT22;2830;50.656;7.568;2023-12-28T01:23:19;7.00;99.90
5617;DHT22;2830;50.656;7.568;2023-12-28T01:25:46;6.90;99.90
5617;DHT22;2830;50.656;7.568;2023-12-28T01:28:13;6.80;99.90
5617;DHT22;2830;50.656;7.568;2023-12-28T01:30:39;6.70;99.90
5617;DHT22;2830;50.656;7.568;2023-12-28T01:33:07;6.60;99.90
5617;DHT22;2830;50.656;7.568;2023-12-28T01:35:33;6.60;99.90
5617;DHT22;2830;50.656;7.568;2023-12-28T01:38:00;6.60;99.90
5617;DHT22;2830;50.656;7.568;2023-12-28T01:40:28;6.50;99.90
5617;DHT22;2830;50.656;7.568;2023-12-28T01:42:55;6.50;99.90
5617;DHT22;2830;50.656;7.568;2023-12-28T01:45:23;6.50;99.90
5617;DHT22;2830;50.656;7.568;2023-12-28T01:47:50;6.50;99.90
5617;DHT22;2830;50.656;7.568;2023-12-28T01:50:20;6.50;99.90
5617;DHT22;2830;50.656;7.568;2023-12-28T01:52:47;6.50;99.90
5617;DHT22;2830;50.656;7.568;2023-12-28T01:55:15;6.50;99.90
5617;DHT22;2830;50.656;7.568;2023-12-28T01:57:43;6.50;99.90
5617;DHT22;2830;50.656;7.568;2023-12-28T02:00:11;6.60;99.90
5617;DHT22;2830;50.656;7.568;2023-12-28T02:02:38;6.60;99.90
5617;DHT22;2830;50.656;7.568;2023-12-28T02:05:06;6.60;99.90
5617;DHT22;2830;50.656;7.568;2023-12-28T02:07:33;6.60;99.90
5617;DHT22;2830;50.656;7.568;2023-12-28T02:10:03;6.60;99.90
5617;DHT22;2830;50.656;7.568;2023-12-28T02:12:30;6.70;99.90
5617;DHT22;2830;50.656;7.568;2023-12-28T02:14:57;6.70;99.90
5617;DHT22;2830;50.656;7.568;2023-12-28T02:17:35;6.80;99.90
5617;DHT22;2830;50.656;7.568;2023-12-28T02:20:03;6.90;99.90
5617;DHT22;2830;50.656;7.568;2023-12-28T02:22:34;6.90;99.90
5617;DHT22;2830;50.656;7.568;2023-12-28T02:25:10;6.90;99.90
5617;DHT22;2830;50.656;7.568;2023-12-28T02:27:41;6.90;99.90
5617;DHT22;2830;50.656;7.568;2023-12-28T02:30:10;7.00;99.90
5617;DHT22;2830;50.656;7.568;2023-12-28T02:35:26;7.00;99.90
5617;DHT22;2830;50.656;7.568;2023-12-28T02:37:59;7.00;99.90
5617;DHT22;2830;50.656;7.568;2023-12-28T02:40:29;7.00;99.90
5617;DHT22;2830;50.656;7.568;2023-12-28T02:42:58;7.10;99.90
5617;DHT22;2830;50.656;7.568;2023-12-28T02:45:24;7.10;99.90
5617;DHT22;2830;50.656;7.568;2023-12-28T02:47:52;7.10;99.90
5617;DHT22;2830;50.656;7.568;2023-12-28T02:50:19;7.10;99.90
5617;DHT22;2830;50.656;7.568;2023-12-28T02:52:46;7.10;99.90
5617;DHT22;2830;50.656;7.568;2023-12-28T02:55:13;7.20;99.90
5617;DHT22;2830;50.656;7.568;2023-12-28T02:57:40;7.20;99.90
5617;DHT22;2830;50.656;7.568;2023-12-28T03:00:07;7.20;99.90
5617;DHT22;2830;50.656;7.568;2023-12-28T03:02:36;7.20;99.90
5617;DHT22;2830;50.656;7.568;2023-12-28T03:05:04;7.20;99.90
5617;DHT22;2830;50.656;7.568;2023-12-28T03:07:33;7.20;99.90
5617;DHT22;2830;50.656;7.568;2023-12-28T03:10:00;7.20;99.90
5617;DHT22;2830;50.656;7.568;2023-12-28T03:12:28;7.20;99.90
5617;DHT22;2830;50.656;7.568;2023-12-28T03:14:56;7.20;99.90
5617;DHT22;2830;50.656;7.568;2023-12-28T03:17:23;7.20;99.90
5617;DHT22;2830;50.656;7.568;2023-12-28T03:19:49;7.20;99.90
5617;DHT22;2830;50.656;7.568;2023-12-28T03:22:16;7.20;99.90
5617;DHT22;2830;50.656;7.568;2023-12-28T03:24:44;7.20;99.90
5617;DHT22;2830;50.656;7.568;2023-12-28T03:27:11;7.20;99.90
5617;DHT22;2830;50.656;7.568;2023-12-28T03:29:39;7.20;99.90
5617;DHT22;2830;50.656;7.568;2023-12-28T03:32:07;7.20;99.90
5617;DHT22;2830;50.656;7.568;2023-12-28T03:34:34;7.20;99.90
5617;DHT22;2830;50.656;7.568;2023-12-28T03:37:02;7.20;99.90
5617;DHT22;2830;50.656;7.568;2023-12-28T03:39:28;7.20;99.90
5617;DHT22;2830;50.656;7.568;2023-12-28T03:41:55;7.20;99.90
5617;DHT22;2830;50.656;7.568;2023-12-28T03:44:22;7.20;99.90
5617;DHT22;2830;50.656;7.568;2023-12-28T03:46:50;7.20;99.90
5617;DHT22;2830;50.656;7.568;2023-12-28T03:49:20;7.20;99.90
5617;DHT22;2830;50.656;7.568;2023-12-28T03:51:50;7.20;99.90
5617;DHT22;2830;50.656;7.568;2023-12-28T03:54:18;7.20;99.90
5617;DHT22;2830;50.656;7.568;2023-12-28T03:56:46;7.20;99.90
5617;DHT22;2830;50.656;7.568;2023-12-28T03:59:14;7.20;99.90
5617;DHT22;2830;50.656;7.568;2023-12-28T04:01:44;7.20;99.90
5617;DHT22;2830;50.656;7.568;2023-12-28T04:04:11;7.10;99.90
5617;DHT22;2830;50.656;7.568;2023-12-28T04:06:38;7.20;99.90
5617;DHT22;2830;50.656;7.568;2023-12-28T04:09:06;7.20;99.90
5617;DHT22;2830;50.656;7.568;2023-12-28T04:11:33;7.10;99.90
5617;DHT22;2830;50.656;7.568;2023-12-28T04:14:00;7.10;99.90
5617;DHT22;2830;50.656;7.568;2023-12-28T04:16:26;7.00;99.90
5617;DHT22;2830;50.656;7.568;2023-12-28T04:18:53;7.00;99.90
5617;DHT22;2830;50.656;7.568;2023-12-28T04:21:20;6.90;99.90
5617;DHT22;2830;50.656;7.568;2023-12-28T04:23:48;6.90;99.90
5617;DHT22;2830;50.656;7.568;2023-12-28T04:26:18;6.90;99.90
5617;DHT22;2830;50.656;7.568;2023-12-28T04:28:46;6.90;99.90
5617;DHT22;2830;50.656;7.568;2023-12-28T04:31:13;6.90;99.90
5617;DHT22;2830;50.656;7.568;2023-12-28T04:33:40;6.90;99.90
5617;DHT22;2830;50.656;7.568;2023-12-28T04:36:07;6.90;99.90
5617;DHT22;2830;50.656;7.568;2023-12-28T04:38:34;6.80;99.90
5617;DHT22;2830;50.656;7.568;2023-12-28T04:41:01;6.90;99.90
5617;DHT22;2830;50.656;7.568;2023-12-28T04:43:28;6.90;99.90
5617;DHT22;2830;50.656;7.568;2023-12-28T04:45:55;6.90;99.90
5617;DHT22;2830;50.656;7.568;2023-12-28T04:48:22;6.90;99.90
5617;DHT22;2830;50.656;7.568;2023-12-28T04:50:52;6.90;99.90
5617;DHT22;2830;50.656;7.568;2023-12-28T04:53:20;6.90;99.90
5617;DHT22;2830;50.656;7.568;2023-12-28T04:55:47;6.90;99.90
5617;DHT22;2830;50.656;7.568;2023-12-28T04:58:14;6.80;99.90
5617;DHT22;2830;50.656;7.568;2023-12-28T05:00:41;6.80;99.90
5617;DHT22;2830;50.656;7.568;2023-12-28T05:03:08;6.80;99.90
5617;DHT22;2830;50.656;7.568;2023-12-28T05:05:35;6.80;99.90
5617;DHT22;2830;50.656;7.568;2023-12-28T05:08:03;6.80;99.90
5617;DHT22;2830;50.656;7.568;2023-12-28T05:10:30;6.80;99.90
5617;DHT22;2830;50.656;7.568;2023-12-28T05:12:57;6.80;99.90
5617;DHT22;2830;50.656;7.568;2023-12-28T05:15:28;6.80;99.90
5617;DHT22;2830;50.656;7.568;2023-12-28T05:17:55;6.80;99.90
5617;DHT22;2830;50.656;7.568;2023-12-28T05:20:23;6.80;99.90
5617;DHT22;2830;50.656;7.568;2023-12-28T05:22:50;6.80;99.90
5617;DHT22;2830;50.656;7.568;2023-12-28T05:25:17;6.90;99.90
5617;DHT22;2830;50.656;7.568;2023-12-28T05:27:44;6.90;99.90
5617;DHT22;2830;50.656;7.568;2023-12-28T05:30:11;6.90;99.90
5617;DHT22;2830;50.656;7.568;2023-12-28T05:32:39;6.80;99.90
5617;DHT22;2830;50.656;7.568;2023-12-28T05:35:06;6.80;99.90
5617;DHT22;2830;50.656;7.568;2023-12-28T05:37:34;6.80;99.90
5617;DHT22;2830;50.656;7.568;2023-12-28T05:40:01;6.80;99.90
5617;DHT22;2830;50.656;7.568;2023-12-28T05:42:28;6.80;99.90
5617;DHT22;2830;50.656;7.568;2023-12-28T05:44:55;6.70;99.90
5617;DHT22;2830;50.656;7.568;2023-12-28T05:47:22;6.80;99.90
5617;DHT22;2830;50.656;7.568;2023-12-28T05:49:49;6.80;99.90
5617;DHT22;2830;50.656;7.568;2023-12-28T05:52:16;6.80;99.90
5617;DHT22;2830;50.656;7.568;2023-12-28T05:54:46;6.90;99.90
5617;DHT22;2830;50.656;7.568;2023-12-28T05:57:15;6.90;99.90
5617;DHT22;2830;50.656;7.568;2023-12-28T05:59:42;6.90;99.90
5617;DHT22;2830;50.656;7.568;2023-12-28T06:02:09;7.00;99.90
5617;DHT22;2830;50.656;7.568;2023-12-28T06:04:37;7.00;99.90
5617;DHT22;2830;50.656;7.568;2023-12-28T06:07:05;7.00;99.90
5617;DHT22;2830;50.656;7.568;2023-12-28T06:09:32;7.00;99.90
5617;DHT22;2830;50.656;7.568;2023-12-28T06:11:59;7.00;99.90
5617;DHT22;2830;50.656;7.568;2023-12-28T06:14:26;7.10;99.90
5617;DHT22;2830;50.656;7.568;2023-12-28T06:16:53;7.10;99.90
5617;DHT22;2830;50.656;7.568;2023-12-28T06:19:21;7.10;99.90
5617;DHT22;2830;50.656;7.568;2023-12-28T06:21:49;7.10;99.90
5617;DHT22;2830;50.656;7.568;2023-12-28T06:24:16;7.20;99.90
5617;DHT22;2830;50.656;7.568;2023-12-28T06:26:44;7.20;99.90
5617;DHT22;2830;50.656;7.568;2023-12-28T06:29:11;7.20;99.90
5617;DHT22;2830;50.656;7.568;2023-12-28T06:31:39;7.20;99.90
5617;DHT22;2830;50.656;7.568;2023-12-28T06:34:06;7.20;99.90
5617;DHT22;2830;50.656;7.568;2023-12-28T06:36:34;7.20;99.90
5617;DHT22;2830;50.656;7.568;2023-12-28T06:39:01;7.20;99.90
5617;DHT22;2830;50.656;7.568;2023-12-28T06:41:29;7.20;99.90
5617;DHT22;2830;50.656;7.568;2023-12-28T06:43:55;7.20;99.90
5617;DHT22;2830;50.656;7.568;2023-12-28T06:46:22;7.10;99.90
5617;DHT22;2830;50.656;7.568;2023-12-28T06:48:49;7.10;99.90
5617;DHT22;2830;50.656;7.568;2023-12-28T06:51:17;7.10;99.90
5617;DHT22;2830;50.656;7.568;2023-12-28T06:53:48;7.10;99.90
5617;DHT22;2830;50.656;7.568;2023-12-28T06:56:16;7.00;99.90
5617;DHT22;2830;50.656;7.568;2023-12-28T06:58:44;7.00;99.90
5617;DHT22;2830;50.656;7.568;2023-12-28T07:01:10;7.00;99.90
5617;DHT22;2830;50.656;7.568;2023-12-28T07:03:39;7.10;99.90
5617;DHT22;2830;50.656;7.568;2023-12-28T07:06:07;7.10;99.90
5617;DHT22;2830;50.656;7.568;2023-12-28T07:08:34;7.10;99.90
5617;DHT22;2830;50.656;7.568;2023-12-28T07:11:02;7.10;99.90
5617;DHT22;2830;50.656;7.568;2023-12-28T07:13:31;7.10;99.90
5617;DHT22;2830;50.656;7.568;2023-12-28T07:15:58;7.00;99.90
5617;DHT22;2830;50.656;7.568;2023-12-28T07:18:27;7.00;99.90
5617;DHT22;2830;50.656;7.568;2023-12-28T07:20:54;7.00;99.90
5617;DHT22;2830;50.656;7.568;2023-12-28T07:23:21;7.10;99.90
5617;DHT22;2830;50.656;7.568;2023-12-28T07:25:48;7.00;99.90
5617;DHT22;2830;50.656;7.568;2023-12-28T07:28:15;7.00;99.90
5617;DHT22;2830;50.656;7.568;2023-12-28T07:30:42;7.00;99.90
5617;DHT22;2830;50.656;7.568;2023-12-28T07:33:10;7.00;99.90
5617;DHT22;2830;50.656;7.568;2023-12-28T07:35:37;6.90;99.90
5617;DHT22;2830;50.656;7.568;2023-12-28T07:38:04;6.90;99.90
5617;DHT22;2830;50.656;7.568;2023-12-28T07:40:31;7.00;99.90
5617;DHT22;2830;50.656;7.568;2023-12-28T07:42:57;7.00;99.90
5617;DHT22;2830;50.656;7.568;2023-12-28T07:45:25;7.10;99.90
5617;DHT22;2830;50.656;7.568;2023-12-28T07:47:52;7.00;99.90
5617;DHT22;2830;50.656;7.568;2023-12-28T07:50:19;7.00;99.90
5617;DHT22;2830;50.656;7.568;2023-12-28T07:52:47;7.00;99.90
5617;DHT22;2830;50.656;7.568;2023-12-28T07:55:15;6.90;99.90
5617;DHT22;2830;50.656;7.568;2023-12-28T07:57:42;7.00;99.90
5617;DHT22;2830;50.656;7.568;2023-12-28T08:00:10;7.00;99.90
5617;DHT22;2830;50.656;7.568;2023-12-28T08:02:37;7.00;99.90
5617;DHT22;2830;50.656;7.568;2023-12-28T08:05:05;7.00;99.90
5617;DHT22;2830;50.656;7.568;2023-12-28T08:07:32;6.90;99.90
5617;DHT22;2830;50.656;7.568;2023-12-28T08:10:00;6.90;99.90
5617;DHT22;2830;50.656;7.568;2023-12-28T08:12:27;6.90;99.90
5617;DHT22;2830;50.656;7.568;2023-12-28T08:14:55;7.00;99.90
5617;DHT22;2830;50.656;7.568;2023-12-28T08:17:22;7.00;99.90
5617;DHT22;2830;50.656;7.568;2023-12-28T08:19:50;7.00;99.90
5617;DHT22;2830;50.656;7.568;2023-12-28T08:22:17;6.90;99.90
5617;DHT22;2830;50.656;7.568;2023-12-28T08:24:46;7.00;99.90
5617;DHT22;2830;50.656;7.568;2023-12-28T08:27:13;7.00;99.90
5617;DHT22;2830;50.656;7.568;2023-12-28T08:29:41;7.00;99.90
5617;DHT22;2830;50.656;7.568;2023-12-28T08:32:09;7.10;99.90
5617;DHT22;2830;50.656;7.568;2023-12-28T08:34:37;7.10;99.90
5617;DHT22;2830;50.656;7.568;2023-12-28T08:37:05;7.10;99.90
5617;DHT22;2830;50.656;7.568;2023-12-28T08:39:32;7.20;99.90
5617;DHT22;2830;50.656;7.568;2023-12-28T08:41:59;7.30;99.90
5617;DHT22;2830;50.656;7.568;2023-12-28T08:44:26;7.40;99.90
5617;DHT22;2830;50.656;7.568;2023-12-28T08:46:53;7.40;99.90
5617;DHT22;2830;50.656;7.568;2023-12-28T08:49:20;7.40;99.90
5617;DHT22;2830;50.656;7.568;2023-12-28T08:51:49;7.50;99.90
5617;DHT22;2830;50.656;7.568;2023-12-28T08:54:16;7.50;99.90
5617;DHT22;2830;50.656;7.568;2023-12-28T08:56:43;7.50;99.90
5617;DHT22;2830;50.656;7.568;2023-12-28T08:59:12;7.40;99.90
5617;DHT22;2830;50.656;7.568;2023-12-28T09:01:39;7.50;99.90
5617;DHT22;2830;50.656;7.568;2023-12-28T09:04:06;7.40;99.90
5617;DHT22;2830;50.656;7.568;2023-12-28T09:06:33;7.60;99.90
5617;DHT22;2830;50.656;7.568;2023-12-28T09:09:02;7.80;99.90
5617;DHT22;2830;50.656;7.568;2023-12-28T09:11:30;8.10;99.90
5617;DHT22;2830;50.656;7.568;2023-12-28T09:13:57;8.50;99.90
5617;DHT22;2830;50.656;7.568;2023-12-28T09:16:24;8.70;99.90
5617;DHT22;2830;50.656;7.568;2023-12-28T09:18:51;8.80;99.90
5617;DHT22;2830;50.656;7.568;2023-12-28T09:21:18;8.80;99.90
5617;DHT22;2830;50.656;7.568;2023-12-28T09:23:45;8.80;99.90
5617;DHT22;2830;50.656;7.568;2023-12-28T09:26:12;8.70;99.90
5617;DHT22;2830;50.656;7.568;2023-12-28T09:28:39;8.70;99.90
5617;DHT22;2830;50.656;7.568;2023-12-28T09:31:07;8.60;99.90
5617;DHT22;2830;50.656;7.568;2023-12-28T09:33:34;8.70;99.90
5617;DHT22;2830;50.656;7.568;2023-12-28T09:36:03;8.70;99.90
5617;DHT22;2830;50.656;7.568;2023-12-28T09:38:30;8.90;99.90
5617;DHT22;2830;50.656;7.568;2023-12-28T09:41:01;9.00;99.90
5617;DHT22;2830;50.656;7.568;2023-12-28T09:43:37;9.00;99.90
5617;DHT22;2830;50.656;7.568;2023-12-28T09:46:07;9.10;99.90
5617;DHT22;2830;50.656;7.568;2023-12-28T09:48:37;9.10;99.90
5617;DHT22;2830;50.656;7.568;2023-12-28T09:51:05;9.50;99.90
5617;DHT22;2830;50.656;7.568;2023-12-28T09:53:32;10.00;99.90
5617;DHT22;2830;50.656;7.568;2023-12-28T09:55:59;10.70;99.90
5617;DHT22;2830;50.656;7.568;2023-12-28T09:58:27;11.30;99.90
5617;DHT22;2830;50.656;7.568;2023-12-28T10:00:56;12.00;99.90
5617;DHT22;2830;50.656;7.568;2023-12-28T10:03:23;12.30;99.90
5617;DHT22;2830;50.656;7.568;2023-12-28T10:05:50;12.00;99.90
5617;DHT22;2830;50.656;7.568;2023-12-28T10:08:17;12.20;99.90
5617;DHT22;2830;50.656;7.568;2023-12-28T10:10:44;12.30;99.90
5617;DHT22;2830;50.656;7.568;2023-12-28T10:13:19;12.50;99.90
5617;DHT22;2830;50.656;7.568;2023-12-28T10:15:45;12.40;99.90
5617;DHT22;2830;50.656;7.568;2023-12-28T10:18:13;12.70;99.90
5617;DHT22;2830;50.656;7.568;2023-12-28T10:20:40;13.10;99.90
5617;DHT22;2830;50.656;7.568;2023-12-28T10:23:07;13.40;99.90
5617;DHT22;2830;50.656;7.568;2023-12-28T10:25:34;13.50;99.90
5617;DHT22;2830;50.656;7.568;2023-12-28T10:28:05;13.70;99.90
5617;DHT22;2830;50.656;7.568;2023-12-28T10:30:35;13.90;99.90
5617;DHT22;2830;50.656;7.568;2023-12-28T10:33:05;13.50;99.90
5617;DHT22;2830;50.656;7.568;2023-12-28T10:35:33;13.10;99.90
5617;DHT22;2830;50.656;7.568;2023-12-28T10:38:01;12.90;99.90
5617;DHT22;2830;50.656;7.568;2023-12-28T10:40:31;12.80;99.90
5617;DHT22;2830;50.656;7.568;2023-12-28T10:43:00;13.00;99.90
5617;DHT22;2830;50.656;7.568;2023-12-28T10:45:32;12.90;99.90
5617;DHT22;2830;50.656;7.568;2023-12-28T10:48:09;12.90;99.90
5617;DHT22;2830;50.656;7.568;2023-12-28T10:50:46;13.60;99.90
5617;DHT22;2830;50.656;7.568;2023-12-28T10:53:58;13.30;99.90
5617;DHT22;2830;50.656;7.568;2023-12-28T10:56:41;14.10;99.90
5617;DHT22;2830;50.656;7.568;2023-12-28T11:04:34;15.80;99.90
5617;DHT22;2830;50.656;7.568;2023-12-28T11:07:05;15.60;99.90
5617;DHT22;2830;50.656;7.568;2023-12-28T11:09:32;15.30;99.90
5617;DHT22;2830;50.656;7.568;2023-12-28T11:12:01;14.70;99.90
5617;DHT22;2830;50.656;7.568;2023-12-28T11:14:29;14.40;99.90
5617;DHT22;2830;50.656;7.568;2023-12-28T11:16:58;15.10;99.90
5617;DHT22;2830;50.656;7.568;2023-12-28T11:19:28;16.60;99.90
5617;DHT22;2830;50.656;7.568;2023-12-28T11:21:55;16.60;99.90
5617;DHT22;2830;50.656;7.568;2023-12-28T11:24:23;17.40;99.90
5617;DHT22;2830;50.656;7.568;2023-12-28T11:26:54;17.80;99.90
5617;DHT22;2830;50.656;7.568;2023-12-28T11:29:22;18.10;99.90
5617;DHT22;2830;50.656;7.568;2023-12-28T11:31:54;17.90;99.90
5617;DHT22;2830;50.656;7.568;2023-12-28T11:34:29;17.90;99.90
5617;DHT22;2830;50.656;7.568;2023-12-28T11:36:58;18.80;99.90
5617;DHT22;2830;50.656;7.568;2023-12-28T11:39:33;18.80;98.00
5617;DHT22;2830;50.656;7.568;2023-12-28T11:42:05;18.60;98.80
5617;DHT22;2830;50.656;7.568;2023-12-28T11:44:38;19.40;96.80
5617;DHT22;2830;50.656;7.568;2023-12-28T11:47:35;19.90;95.90
5617;DHT22;2830;50.656;7.568;2023-12-28T11:50:09;20.10;93.80
5617;DHT22;2830;50.656;7.568;2023-12-28T11:52:36;20.10;92.40
5617;DHT22;2830;50.656;7.568;2023-12-28T11:55:03;20.50;92.10
5617;DHT22;2830;50.656;7.568;2023-12-28T11:57:31;19.90;91.40
5617;DHT22;2830;50.656;7.568;2023-12-28T12:00:02;20.10;92.90
5617;DHT22;2830;50.656;7.568;2023-12-28T12:02:30;20.50;91.40
5617;DHT22;2830;50.656;7.568;2023-12-28T12:04:57;21.60;90.20
5617;DHT22;2830;50.656;7.568;2023-12-28T12:07:24;21.50;87.30
5617;DHT22;2830;50.656;7.568;2023-12-28T12:09:57;21.20;86.70
5617;DHT22;2830;50.656;7.568;2023-12-28T12:12:27;20.20;87.60
5617;DHT22;2830;50.656;7.568;2023-12-28T12:14:54;19.20;90.40
5617;DHT22;2830;50.656;7.568;2023-12-28T12:17:24;19.10;91.00
5617;DHT22;2830;50.656;7.568;2023-12-28T12:19:52;20.00;90.60
5617;DHT22;2830;50.656;7.568;2023-12-28T12:22:22;20.00;87.60
5617;DHT22;2830;50.656;7.568;2023-12-28T12:24:54;19.90;91.10
5617;DHT22;2830;50.656;7.568;2023-12-28T12:27:23;20.00;90.40
5617;DHT22;2830;50.656;7.568;2023-12-28T12:29:50;19.90;91.00
5617;DHT22;2830;50.656;7.568;2023-12-28T12:32:16;20.00;88.50
5617;DHT22;2830;50.656;7.568;2023-12-28T12:34:43;19.00;90.50
5617;DHT22;2830;50.656;7.568;2023-12-28T12:37:11;17.80;92.30
5617;DHT22;2830;50.656;7.568;2023-12-28T12:39:38;16.60;93.80
5617;DHT22;2830;50.656;7.568;2023-12-28T12:42:05;15.00;96.70
5617;DHT22;2830;50.656;7.568;2023-12-28T12:44:34;14.00;99.60
5617;DHT22;2830;50.656;7.568;2023-12-28T12:47:01;13.30;99.90
5617;DHT22;2830;50.656;7.568;2023-12-28T12:49:29;12.80;99.90
5617;DHT22;2830;50.656;7.568;2023-12-28T12:51:56;12.40;99.90
5617;DHT22;2830;50.656;7.568;2023-12-28T12:54:26;12.20;99.90
5617;DHT22;2830;50.656;7.568;2023-12-28T12:56:54;12.10;99.90
5617;DHT22;2830;50.656;7.568;2023-12-28T12:59:23;12.10;99.90
5617;DHT22;2830;50.656;7.568;2023-12-28T13:01:52;12.10;99.90
5617;DHT22;2830;50.656;7.568;2023-12-28T13:04:20;12.00;99.90
5617;DHT22;2830;50.656;7.568;2023-12-28T13:06:48;12.10;99.90
5617;DHT22;2830;50.656;7.568;2023-12-28T13:09:16;12.10;99.90
5617;DHT22;2830;50.656;7.568;2023-12-28T13:11:43;12.10;99.90
5617;DHT22;2830;50.656;7.568;2023-12-28T13:14:10;12.00;99.90
5617;DHT22;2830;50.656;7.568;2023-12-28T13:16:37;11.90;99.90
5617;DHT22;2830;50.656;7.568;2023-12-28T13:19:04;11.80;99.90
5617;DHT22;2830;50.656;7.568;2023-12-28T13:21:31;11.90;99.90
5617;DHT22;2830;50.656;7.568;2023-12-28T13:23:58;11.90;99.90
5617;DHT22;2830;50.656;7.568;2023-12-28T13:26:29;11.70;99.90
5617;DHT22;2830;50.656;7.568;2023-12-28T13:28:56;11.70;99.90
5617;DHT22;2830;50.656;7.568;2023-12-28T13:31:23;11.60;99.90
5617;DHT22;2830;50.656;7.568;2023-12-28T13:33:51;11.50;99.90
5617;DHT22;2830;50.656;7.568;2023-12-28T13:36:19;11.40;99.90
5617;DHT22;2830;50.656;7.568;2023-12-28T13:38:46;11.30;99.90
5617;DHT22;2830;50.656;7.568;2023-12-28T13:41:12;11.30;99.90
5617;DHT22;2830;50.656;7.568;2023-12-28T13:43:39;11.30;99.90
5617;DHT22;2830;50.656;7.568;2023-12-28T13:46:06;11.30;99.90
5617;DHT22;2830;50.656;7.568;2023-12-28T13:48:33;11.30;99.90
5617;DHT22;2830;50.656;7.568;2023-12-28T13:51:02;11.20;99.90
5617;DHT22;2830;50.656;7.568;2023-12-28T13:53:29;11.20;99.90
5617;DHT22;2830;50.656;7.568;2023-12-28T13:55:56;11.10;99.90
5617;DHT22;2830;50.656;7.568;2023-12-28T13:58:23;11.10;99.90
5617;DHT22;2830;50.656;7.568;2023-12-28T14:00:50;11.10;99.90
5617;DHT22;2830;50.656;7.568;2023-12-28T14:03:17;11.10;99.90
5617;DHT22;2830;50.656;7.568;2023-12-28T14:05:44;11.10;99.90
5617;DHT22;2830;50.656;7.568;2023-12-28T14:08:12;11.10;99.90
5617;DHT22;2830;50.656;7.568;2023-12-28T14:10:38;11.10;99.90
5617;DHT22;2830;50.656;7.568;2023-12-28T14:13:05;11.10;99.90
5617;DHT22;2830;50.656;7.568;2023-12-28T14:15:33;11.00;99.90
5617;DHT22;2830;50.656;7.568;2023-12-28T14:17:59;11.20;99.90
5617;DHT22;2830;50.656;7.568;2023-12-28T14:20:27;11.20;99.90
5617;DHT22;2830;50.656;7.568;2023-12-28T14:22:55;11.20;99.90
5617;DHT22;2830;50.656;7.568;2023-12-28T14:25:22;11.00;99.90
5617;DHT22;2830;50.656;7.568;2023-12-28T14:27:50;11.00;99.90
5617;DHT22;2830;50.656;7.568;2023-12-28T14:30:18;10.80;99.90
5617;DHT22;2830;50.656;7.568;2023-12-28T14:32:46;10.80;99.90
5617;DHT22;2830;50.656;7.568;2023-12-28T14:35:14;10.70;99.90
5617;DHT22;2830;50.656;7.568;2023-12-28T14:37:46;10.60;99.90
5617;DHT22;2830;50.656;7.568;2023-12-28T14:40:14;10.50;99.90
5617;DHT22;2830;50.656;7.568;2023-12-28T14:42:41;10.40;99.90
5617;DHT22;2830;50.656;7.568;2023-12-28T14:45:08;10.30;99.90
5617;DHT22;2830;50.656;7.568;2023-12-28T14:47:35;10.30;99.90
5617;DHT22;2830;50.656;7.568;2023-12-28T14:50:02;10.20;99.90
5617;DHT22;2830;50.656;7.568;2023-12-28T14:52:32;10.20;99.90
5617;DHT22;2830;50.656;7.568;2023-12-28T14:54:59;10.10;99.90
5617;DHT22;2830;50.656;7.568;2023-12-28T14:57:26;10.10;99.90
5617;DHT22;2830;50.656;7.568;2023-12-28T14:59:53;10.10;99.90
5617;DHT22;2830;50.656;7.568;2023-12-28T15:02:20;10.10;99.90
5617;DHT22;2830;50.656;7.568;2023-12-28T15:04:47;10.00;99.90
5617;DHT22;2830;50.656;7.568;2023-12-28T15:07:15;10.00;99.90
5617;DHT22;2830;50.656;7.568;2023-12-28T15:09:43;10.00;99.90
5617;DHT22;2830;50.656;7.568;2023-12-28T15:12:11;10.00;99.90
5617;DHT22;2830;50.656;7.568;2023-12-28T15:14:38;9.90;99.90
5617;DHT22;2830;50.656;7.568;2023-12-28T15:17:05;9.80;99.90
5617;DHT22;2830;50.656;7.568;2023-12-28T15:19:36;9.80;99.90
5617;DHT22;2830;50.656;7.568;2023-12-28T15:22:03;9.70;99.90
5617;DHT22;2830;50.656;7.568;2023-12-28T15:24:31;9.60;99.90
5617;DHT22;2830;50.656;7.568;2023-12-28T15:26:58;9.60;99.90
5617;DHT22;2830;50.656;7.568;2023-12-28T15:29:25;9.50;99.90
5617;DHT22;2830;50.656;7.568;2023-12-28T15:31:53;9.50;99.90
5617;DHT22;2830;50.656;7.568;2023-12-28T15:34:21;9.40;99.90
5617;DHT22;2830;50.656;7.568;2023-12-28T15:36:48;9.40;99.90
5617;DHT22;2830;50.656;7.568;2023-12-28T15:39:15;9.40;99.90
5617;DHT22;2830;50.656;7.568;2023-12-28T15:41:42;9.40;99.90
5617;DHT22;2830;50.656;7.568;2023-12-28T15:44:09;9.30;99.90
5617;DHT22;2830;50.656;7.568;2023-12-28T15:46:37;9.20;99.90
5617;DHT22;2830;50.656;7.568;2023-12-28T15:49:04;9.20;99.90
5617;DHT22;2830;50.656;7.568;2023-12-28T15:51:31;9.10;99.90
5617;DHT22;2830;50.656;7.568;2023-12-28T15:53:58;9.10;99.90
5617;DHT22;2830;50.656;7.568;2023-12-28T15:56:25;9.10;99.90
5617;DHT22;2830;50.656;7.568;2023-12-28T15:58:52;9.10;99.90
5617;DHT22;2830;50.656;7.568;2023-12-28T16:01:19;9.00;99.90
5617;DHT22;2830;50.656;7.568;2023-12-28T16:03:47;9.00;99.90
5617;DHT22;2830;50.656;7.568;2023-12-28T16:06:14;9.00;99.90
5617;DHT22;2830;50.656;7.568;2023-12-28T16:08:42;8.90;99.90
5617;DHT22;2830;50.656;7.568;2023-12-28T16:11:09;8.90;99.90
5617;DHT22;2830;50.656;7.568;2023-12-28T16:13:36;8.90;99.90
5617;DHT22;2830;50.656;7.568;2023-12-28T16:16:04;8.80;99.90
5617;DHT22;2830;50.656;7.568;2023-12-28T16:18:37;8.80;99.90
5617;DHT22;2830;50.656;7.568;2023-12-28T16:21:05;8.90;99.90
5617;DHT22;2830;50.656;7.568;2023-12-28T16:23:32;8.90;99.90
5617;DHT22;2830;50.656;7.568;2023-12-28T16:25:59;8.90;99.90